Latest Weather Observations for Archerfield

IDQ60901

Issued at 5:11 pm EST Saturday 28 January 2023 (issued every 10 minutes, with the page automatically refreshed every 10 minutes)

About weather observations | Map of Brisbane area stations | Latest observations for Brisbane area | Other Formats
Station Details ID: 040211 Name: ARCHERFIELD AIRPORT Lat: -27.57 Lon: 153.01 Height: 12.5 m
Data from the previous 72 hours. | See also: Recent months at Archerfield
Date/Time
EST
Temp
°C
App
Temp
°C
Dew
Point
°C
Rel
Hum
%
Delta-T
°C
Wind Press
QNH
hPa
Press
MSL
hPa
Rain since
9am
mm
Dir  Spd
km/h
Gust
km/h
Spd
kts
Gust
kts
28/05:00pm 30.4 29.9 19.1 50 7.4 NNE 20 28 11 15 1011.9 1011.8 0.0
28/04:30pm 30.6 30.8 19.3 51 7.4 NE 17 24 9 13 1011.7 1011.6 0.0
28/04:00pm 29.5 30.1 19.5 55 6.5 NE 15 24 8 13 1011.6 1011.5 0.0
28/03:30pm 28.7 30.0 20.2 60 5.6 E 13 19 7 10 1011.9 1011.8 0.0
28/03:00pm 28.5 30.1 20.8 63 5.1 ENE 13 17 7 9 1012.0 1011.9 0.0
28/02:30pm 25.9 27.4 20.5 72 3.5 ESE 13 19 7 10 1012.0 1011.9 0.0
28/02:22pm 25.4 26.1 20.4 74 3.3 SE 17 24 9 13 1012.5 1012.4 0.0
28/02:00pm 28.4 27.4 19.6 59 5.7 E 24 30 13 16 1012.2 1012.1 0.0
28/01:30pm 32.3 31.1 19.2 46 8.6 NE 24 35 13 19 1011.9 1011.8 0.0
28/01:26pm 32.6 32.6 19.8 46 8.5 NE 19 32 10 17 1011.8 1011.7 0.0
28/01:00pm 32.8 34.8 20.0 47 8.5 NNE 9 19 5 10 1012.0 1011.9 0.0
28/12:30pm 32.8 34.3 18.9 43 9.1 NE 9 20 5 11 1012.3 1012.2 0.0
28/12:00pm 32.2 33.6 17.7 42 9.3 N 7 19 4 10 1012.8 1012.7 0.0
28/11:30am 31.8 33.5 19.4 47 8.1 N 9 15 5 8 1013.1 1013.0 0.0
28/11:00am 30.9 33.1 19.6 51 7.4 SSE 7 17 4 9 1013.7 1013.6 0.0
28/10:30am 30.5 32.8 20.7 55 6.5 NW 9 17 5 9 1014.1 1014.0 0.0
28/10:00am 29.9 32.5 20.5 57 6.2 WNW 7 17 4 9 1014.2 1014.1 0.0
28/09:30am 29.6 32.7 21.0 60 5.7 NNE 6 13 3 7 1014.5 1014.4 0.0
28/09:00am 28.6 31.0 20.9 63 5.1 NNW 9 13 5 7 1014.7 1014.6 0.0
28/08:30am 28.2 32.4 21.7 68 4.4 E 2 9 1 5 1014.9 1014.8 0.0
28/08:00am 26.8 31.1 21.1 71 3.8 CALM 0 0 0 0 1014.9 1014.8 0.0
28/07:30am 25.4 27.9 20.2 73 3.4 SSW 7 11 4 6 1014.8 1014.7 0.0
28/07:00am 24.4 26.1 20.1 77 2.8 SSW 11 15 6 8 1014.5 1014.4 0.0
28/06:30am 23.4 25.9 19.8 80 2.3 S 6 7 3 4 1013.9 1013.8 0.0
28/06:00am 22.9 26.3 20.2 85 1.7 S 2 6 1 3 1013.6 1013.5 0.0
28/05:30am 21.4 23.6 19.1 87 1.5 S 6 7 3 4 1013.3 1013.2 0.0
28/05:00am 21.4 23.2 19.5 89 1.2 SSW 9 11 5 6 1013.0 1012.9 0.0
28/04:30am 21.2 23.5 19.5 90 1.1 SW 6 7 3 4 1012.4 1012.3 0.0
28/04:00am 21.5 24.6 19.4 88 1.3 SW 2 6 1 3 1012.3 1012.2 0.0
28/03:30am 21.5 24.3 19.6 89 1.2 SSW 4 7 2 4 1012.4 1012.3 0.0
28/03:00am 21.9 24.8 19.1 84 1.8 S 2 7 1 4 1012.3 1012.2 0.0
28/02:30am 22.5 25.0 19.9 85 1.7 SSE 6 7 3 4 1012.3 1012.2 0.0
28/02:00am 23.0 25.3 20.7 87 1.5 S 9 11 5 6 1012.6 1012.5 0.0
28/01:30am 23.5 26.0 21.8 90 1.1 S 11 13 6 7 1012.6 1012.5 0.0
28/01:00am 22.6 26.5 20.3 87 1.5 CALM 0 4 0 2 1012.7 1012.6 0.0
28/12:30am 24.0 27.1 21.5 86 1.7 SSW 7 9 4 5 1013.1 1013.0 0.0
28/12:00am 24.6 27.9 21.5 83 2.1 S 6 7 3 4 1013.2 1013.1 0.0
 
Date/Time
EST
Temp
°C
App
Temp
°C
Dew
Point
°C
Rel
Hum
%
Delta-T
°C
Wind Press
QNH
hPa
Press
MSL
hPa
Rain since
9am
mm
Dir  Spd
km/h
Gust
km/h
Spd
kts
Gust
kts
27/11:30pm 24.9 27.8 21.8 83 2.1 E 9 13 5 7 1013.4 1013.3 0.0
27/11:00pm 25.2 28.0 21.5 80 2.5 ESE 9 11 5 6 1013.9 1013.8 0.0
27/10:30pm 25.4 28.3 21.7 80 2.5 SE 9 11 5 6 1014.1 1014.0 0.0
27/10:00pm 25.8 29.3 22.1 80 2.5 SE 7 9 4 5 1014.0 1013.9 0.0
27/09:30pm 25.8 29.4 22.1 80 2.5 ESE 6 13 3 7 1014.0 1013.9 0.0
27/09:00pm 25.9 29.6 22.2 80 2.5 E 6 9 3 5 1014.0 1013.9 0.0
27/08:30pm 26.0 28.7 21.4 76 3.1 E 9 13 5 7 1013.6 1013.5 0.0
27/08:00pm 26.2 28.1 21.4 75 3.2 ENE 13 17 7 9 1013.2 1013.1 0.0
27/07:30pm 26.4 28.0 21.4 74 3.3 NE 15 19 8 10 1013.2 1013.1 0.0
27/07:00pm 26.3 28.6 20.6 71 3.7 ENE 9 11 5 6 1013.0 1012.9 0.0
27/06:30pm 27.2 29.8 20.5 67 4.4 S 7 11 4 6 1012.7 1012.6 0.0
27/06:00pm 27.3 28.2 20.9 68 4.2 NE 17 22 9 12 1012.1 1012.0 0.0
27/05:30pm 27.7 27.5 20.5 65 4.7 NE 22 28 12 15 1011.8 1011.7 0.0
27/05:00pm 29.3 31.0 17.2 48 7.6 ENE 4 9 2 5 1011.6 1011.5 0.0
27/04:30pm 29.6 30.3 16.1 44 8.4 SE 7 9 4 5 1011.7 1011.6 0.0
27/04:00pm 29.9 31.0 16.7 45 8.3 SSE 6 9 3 5 1011.9 1011.8 0.0
27/03:30pm 30.3 30.5 16.7 44 8.5 SW 11 15 6 8 1012.0 1011.9 0.0
27/03:00pm 30.7 31.3 17.7 45 8.3 SW 11 19 6 10 1012.3 1012.2 0.0
27/02:30pm 30.2 31.2 16.9 44 8.4 SW 7 13 4 7 1012.8 1012.7 0.0
27/02:00pm 29.9 30.0 17.4 47 7.9 SSW 13 17 7 9 1013.2 1013.1 0.0
27/01:30pm 30.1 30.7 16.9 45 8.3 S 9 13 5 7 1013.6 1013.5 0.0
27/01:00pm 30.5 31.4 17.6 46 8.2 SSW 9 15 5 8 1013.9 1013.8 0.0
27/12:30pm 30.5 31.8 17.6 46 8.2 SSW 7 15 4 8 1014.2 1014.1 0.0
27/12:00pm 29.9 29.8 17.0 45 8.1 SSW 13 19 7 10 1014.6 1014.5 0.0
27/11:30am 29.7 29.8 17.5 48 7.7 SW 13 19 7 10 1014.7 1014.6 0.0
27/11:00am 30.0 31.6 19.1 52 7.1 SSE 9 17 5 9 1014.8 1014.7 0.0
27/10:30am 28.5 29.5 18.6 55 6.4 S 11 15 6 8 1014.8 1014.7 0.0
27/10:00am 27.9 27.9 17.1 51 6.8 SSE 13 17 7 9 1015.1 1015.0 0.0
27/09:30am 27.8 28.1 17.9 54 6.3 SSE 13 17 7 9 1015.3 1015.2 0.0
27/09:00am 27.2 27.8 18.5 59 5.6 SSW 13 17 7 9 1015.3 1015.2 0.0
27/08:30am 26.4 26.3 19.5 66 4.5 S 19 22 10 12 1015.0 1014.9 0.0
27/08:00am 25.6 28.5 20.6 74 3.3 WSW 6 11 3 6 1015.5 1015.4 0.0
27/07:30am 24.9 26.2 20.2 75 3.1 S 13 17 7 9 1015.4 1015.3 0.0
27/07:00am 24.5 25.3 19.8 75 3.0 SSW 15 22 8 12 1015.5 1015.4 0.0
27/06:30am 24.2 24.7 20.1 78 2.7 S 17 20 9 11 1014.9 1014.8 0.0
27/06:00am 23.9 25.2 19.4 76 2.9 SSW 11 15 6 8 1014.1 1014.0 0.0
27/05:30am 23.7 25.5 19.6 78 2.6 SW 9 11 5 6 1013.8 1013.7 0.0
27/05:00am 23.2 24.9 19.4 79 2.4 WNW 9 11 5 6 1013.3 1013.2 0.0
27/04:30am 23.3 24.9 19.9 81 2.2 WNW 11 13 6 7 1012.5 1012.4 0.0
27/04:00am 23.5 25.7 20.4 83 2.0 W 9 11 5 6 1012.2 1012.1 0.0
27/03:30am 23.9 28.3 21.4 86 1.6 CALM 0 7 0 4 1011.9 1011.8 0.0
27/03:00am 24.0 28.5 21.5 86 1.7 CALM 0 6 0 3 1011.9 1011.8 0.0
27/02:30am 24.5 28.0 21.8 85 1.8 SW 6 11 3 6 1011.9 1011.8 0.0
27/02:00am 24.4 27.6 21.7 85 1.8 W 7 9 4 5 1012.0 1011.9 0.0
27/01:30am 24.4 28.0 22.1 87 1.5 N 6 9 3 5 1012.2 1012.1 0.0
27/01:00am 24.6 27.6 21.9 85 1.8 NE 9 11 5 6 1012.4 1012.3 0.0
27/12:30am 24.8 28.3 21.9 84 1.9 NE 6 7 3 4 1012.8 1012.7 0.0
27/12:00am 25.2 29.5 21.9 82 2.2 ENE 2 6 1 3 1013.2 1013.1 0.0
 
Date/Time
EST
Temp
°C
App
Temp
°C
Dew
Point
°C
Rel
Hum
%
Delta-T
°C
Wind Press
QNH
hPa
Press
MSL
hPa
Rain since
9am
mm
Dir  Spd
km/h
Gust
km/h
Spd
kts
Gust
kts
26/11:30pm 24.9 27.7 21.6 82 2.2 NNE 9 15 5 8 1013.4 1013.3 0.0
26/11:00pm 25.8 28.8 21.9 79 2.6 E 9 11 5 6 1013.8 1013.7 0.0
26/10:30pm 25.8 28.6 21.5 77 2.9 E 9 11 5 6 1013.9 1013.8 0.0
26/10:00pm 26.0 29.3 21.4 76 3.1 ESE 6 9 3 5 1014.3 1014.2 0.0
26/09:30pm 25.6 28.5 21.1 76 3.0 NE 7 13 4 7 1014.1 1014.0 0.0
26/09:00pm 26.1 28.0 21.3 75 3.2 NE 13 19 7 10 1013.7 1013.6 0.0
26/08:30pm 26.4 28.0 21.4 74 3.3 NE 15 20 8 11 1013.3 1013.2 0.0
26/08:00pm 26.3 28.5 21.9 77 2.9 NNE 13 20 7 11 1013.0 1012.9 0.0
26/07:30pm 26.3 27.0 22.2 78 2.8 NNE 22 30 12 16 1012.6 1012.5 0.0
26/07:00pm 26.8 27.3 22.0 75 3.2 NNE 22 30 12 16 1012.6 1012.5 0.0
26/06:30pm 27.2 27.2 21.7 72 3.7 NNE 24 32 13 17 1012.2 1012.1 0.0
26/06:00pm 27.9 27.7 21.2 67 4.5 NNE 24 33 13 18 1011.6 1011.5 0.0
26/05:30pm 28.8 28.2 20.5 61 5.5 NE 24 32 13 17 1011.8 1011.7 0.0
26/05:00pm 29.6 28.6 19.6 55 6.5 NNE 24 32 13 17 1011.1 1011.0 0.0
26/04:30pm 30.4 28.8 19.1 50 7.3 NNE 26 33 14 18 1010.6 1010.5 0.0
26/04:00pm 30.8 29.3 19.5 51 7.4 NNE 26 32 14 17 1010.5 1010.4 0.0
26/03:30pm 32.5 31.5 20.4 49 8.1 NNE 26 32 14 17 1010.7 1010.6 0.0
26/03:00pm 32.3 31.9 20.9 51 7.6 NNE 24 32 13 17 1011.1 1011.0 0.0
26/02:30pm 33.1 32.7 20.9 48 8.2 NNE 24 30 13 16 1011.4 1011.3 0.0
26/02:00pm 33.3 33.8 20.8 48 8.4 NNE 19 24 10 13 1011.8 1011.7 0.0
26/01:30pm 33.9 36.3 19.6 43 9.5 W 6 11 3 6 1012.0 1011.9 0.0
26/01:00pm 33.3 35.9 20.5 47 8.6 NNE 7 17 4 9 1012.2 1012.1 0.0
26/12:30pm 33.2 35.4 19.7 45 8.9 NNW 7 17 4 9 1012.4 1012.3 0.0
26/12:00pm 32.3 34.4 20.2 48 8.0 WSW 9 15 5 8 1012.7 1012.6 0.0
26/11:30am 31.1 32.7 19.1 48 7.8 WSW 9 17 5 9 1013.2 1013.1 0.0
26/11:00am 30.8 33.4 20.4 54 6.9 WNW 7 13 4 7 1013.6 1013.5 0.0
26/10:30am 29.8 32.5 20.6 57 6.1 NW 7 13 4 7 1013.9 1013.8 0.0
26/10:00am 29.0 32.1 21.5 64 5.0 WSW 7 13 4 7 1014.1 1014.0 0.0
26/09:30am 28.2 31.2 22.0 69 4.2 WSW 9 15 5 8 1014.3 1014.2 0.0
26/09:00am 27.3 31.2 22.9 77 3.0 WSW 7 11 4 6 1014.6 1014.5 0.0
26/08:40am 26.2 29.6 21.6 76 3.1 SW 6 9 3 5 1014.7 1014.6 0.0
26/08:30am 26.0 29.4 21.7 77 2.9 WSW 6 9 3 5 1014.7 1014.6 0.0
26/08:00am 25.7 29.1 22.0 80 2.5 WSW 7 9 4 5 1014.6 1014.5 0.0
26/07:30am 24.5 28.2 22.2 87 1.5 WSW 6 9 3 5 1014.7 1014.6 0.0
26/07:00am 23.6 27.1 22.2 92 0.9 WSW 7 7 4 4 1014.7 1014.6 0.0
26/06:47am 22.9 26.3 21.7 93 0.8 WSW 6 9 3 5 1014.7 1014.6 0.0
26/06:30am 22.8 26.1 21.8 94 0.7 W 7 9 4 5 1014.5 1014.4 0.0
26/06:03am 22.6 25.8 21.6 94 0.7 W 7 11 4 6 1014.4 1014.3 0.0
26/06:00am 22.6 25.8 21.6 94 0.7 W 7 9 4 5 1014.3 1014.2 0.0
26/05:30am 22.3 26.6 21.1 93 0.8 CALM 0 0 0 0 1014.1 1014.0 0.0
26/05:00am 22.2 25.6 21.0 93 0.8 WSW 4 7 2 4 1013.7 1013.6 0.0
26/04:30am 22.0 25.0 20.8 93 0.8 WSW 6 7 3 4 1013.4 1013.3 0.0
26/04:00am 21.9 25.1 20.5 92 0.9 WSW 4 7 2 4 1013.1 1013.0 0.0
26/03:56am 22.0 25.6 20.6 92 0.9 SW 2 7 1 4 1013.1 1013.0 0.0
26/03:30am 22.6 25.8 21.2 92 0.9 SW 6 6 3 3 1012.8 1012.7 0.0
26/03:00am 22.3 25.1 20.8 91 1.0 WSW 7 7 4 4 1012.7 1012.6 0.0
26/02:30am 23.1 26.3 21.7 92 0.9 S 7 11 4 6 1012.6 1012.5 0.0
26/02:00am 23.3 26.5 21.7 91 1.1 S 7 11 4 6 1012.7 1012.6 0.0
26/01:30am 23.4 26.3 21.8 91 1.1 S 9 11 5 6 1012.8 1012.7 0.0
26/01:00am 24.1 27.7 22.0 88 1.4 E 6 7 3 4 1012.8 1012.7 0.0
26/12:30am 23.9 28.1 21.8 88 1.4 NE 2 7 1 4 1012.9 1012.8 0.0
26/12:00am 24.5 27.9 22.0 86 1.7 E 7 9 4 5 1013.2 1013.1 0.0
 
Date/Time
EST
Temp
°C
App
Temp
°C
Dew
Point
°C
Rel
Hum
%
Delta-T
°C
Wind Press
QNH
hPa
Press
MSL
hPa
Rain since
9am
mm
Dir  Spd
km/h
Gust
km/h
Spd
kts
Gust
kts
25/11:30pm 24.7 28.2 21.8 84 1.9 ENE 6 7 3 4 1013.4 1013.3 0.0
25/11:00pm 24.4 27.4 21.3 83 2.0 NE 7 11 4 6 1013.3 1013.2 0.0
25/10:30pm 24.9 27.7 21.6 82 2.2 ENE 9 13 5 7 1013.3 1013.2 0.0
25/10:00pm 24.8 27.1 21.3 81 2.3 NE 11 15 6 8 1013.3 1013.2 0.0
25/09:30pm 25.1 26.6 21.2 79 2.6 NNE 15 20 8 11 1013.2 1013.1 0.0
25/09:00pm 25.4 27.5 21.7 80 2.5 NE 13 17 7 9 1012.9 1012.8 0.0
25/08:30pm 25.4 27.0 21.5 79 2.6 NE 15 19 8 10 1012.6 1012.5 0.0
25/08:00pm 25.9 27.8 21.3 76 3.0 E 13 17 7 9 1012.7 1012.6 0.0
25/07:30pm 26.0 27.9 20.6 72 3.5 NNE 11 13 6 7 1012.2 1012.1 0.0
25/07:00pm 26.7 27.2 20.1 67 4.3 N 17 24 9 13 1011.8 1011.7 0.0
25/06:30pm 26.9 26.7 19.8 65 4.6 NNE 20 28 11 15 1011.4 1011.3 0.0
25/06:00pm 28.0 29.8 20.3 63 5.1 NE 11 17 6 9 1011.0 1010.9 0.0
25/05:30pm 28.2 28.8 20.2 62 5.3 NE 17 24 9 13 1010.8 1010.7 0.0

Latest Capital City Observations: Canberra | Sydney | Melbourne | Brisbane | Adelaide | Perth | Hobart | Darwin

Other formats

Comma delimited format used in spreadsheet applications
http://www.bom.gov.au/fwo/IDQ60901/IDQ60901.94575.axf

JavaScript Object Notation format (JSON) in row-major order
http://www.bom.gov.au/fwo/IDQ60901/IDQ60901.94575.json

Data quality

Most of these data are generated automatically and are frequently updated. Quality checks on data are not normally performed. It is possible for incorrect values to appear. Refer to information at About Latest Weather Observations and please check the disclaimer before using these data.